sensor_id;sensor_type;location;lat;lon;timestamp;temperature;humidity
42715;DHT22;28351;51.480;5.706;2023-07-08T00:01:13;19.50;94.20
42715;DHT22;28351;51.480;5.706;2023-07-08T00:03:39;19.30;94.30
42715;DHT22;28351;51.480;5.706;2023-07-08T00:06:26;19.30;94.50
42715;DHT22;28351;51.480;5.706;2023-07-08T00:08:52;19.30;94.50
42715;DHT22;28351;51.480;5.706;2023-07-08T00:11:18;19.20;94.60
42715;DHT22;28351;51.480;5.706;2023-07-08T00:13:44;19.10;94.70
42715;DHT22;28351;51.480;5.706;2023-07-08T00:16:11;19.10;94.90
42715;DHT22;28351;51.480;5.706;2023-07-08T00:18:37;19.10;95.10
42715;DHT22;28351;51.480;5.706;2023-07-08T00:21:08;19.00;95.20
42715;DHT22;28351;51.480;5.706;2023-07-08T00:23:34;19.10;95.40
42715;DHT22;28351;51.480;5.706;2023-07-08T00:26:01;19.00;95.30
42715;DHT22;28351;51.480;5.706;2023-07-08T00:28:27;18.90;95.40
42715;DHT22;28351;51.480;5.706;2023-07-08T00:30:52;18.80;95.70
42715;DHT22;28351;51.480;5.706;2023-07-08T00:33:19;18.80;95.70
42715;DHT22;28351;51.480;5.706;2023-07-08T00:35:45;18.70;96.00
42715;DHT22;28351;51.480;5.706;2023-07-08T00:40:50;18.60;96.20
42715;DHT22;28351;51.480;5.706;2023-07-08T00:43:17;18.60;96.30
42715;DHT22;28351;51.480;5.706;2023-07-08T00:45:49;18.60;96.50
42715;DHT22;28351;51.480;5.706;2023-07-08T00:48:32;18.50;96.50
42715;DHT22;28351;51.480;5.706;2023-07-08T00:50:59;18.50;96.70
42715;DHT22;28351;51.480;5.706;2023-07-08T00:53:26;18.40;96.80
42715;DHT22;28351;51.480;5.706;2023-07-08T00:55:55;18.50;96.90
42715;DHT22;28351;51.480;5.706;2023-07-08T00:58:24;18.40;96.80
42715;DHT22;28351;51.480;5.706;2023-07-08T01:00:51;18.40;96.90
42715;DHT22;28351;51.480;5.706;2023-07-08T01:03:19;18.40;96.90
42715;DHT22;28351;51.480;5.706;2023-07-08T01:05:45;18.50;97.10
42715;DHT22;28351;51.480;5.706;2023-07-08T01:08:12;18.50;97.00
42715;DHT22;28351;51.480;5.706;2023-07-08T01:10:49;18.50;97.10
42715;DHT22;28351;51.480;5.706;2023-07-08T01:13:17;18.50;97.00
42715;DHT22;28351;51.480;5.706;2023-07-08T01:15:46;18.50;97.20
42715;DHT22;28351;51.480;5.706;2023-07-08T01:18:14;18.50;97.10
42715;DHT22;28351;51.480;5.706;2023-07-08T01:20:42;18.60;97.10
42715;DHT22;28351;51.480;5.706;2023-07-08T01:23:09;18.60;97.20
42715;DHT22;28351;51.480;5.706;2023-07-08T01:25:35;18.70;97.10
42715;DHT22;28351;51.480;5.706;2023-07-08T01:28:02;18.70;96.90
42715;DHT22;28351;51.480;5.706;2023-07-08T01:30:29;18.70;97.00
42715;DHT22;28351;51.480;5.706;2023-07-08T01:32:57;18.80;97.00
42715;DHT22;28351;51.480;5.706;2023-07-08T01:35:25;18.70;96.80
42715;DHT22;28351;51.480;5.706;2023-07-08T01:37:56;18.80;97.00
42715;DHT22;28351;51.480;5.706;2023-07-08T01:40:30;18.90;96.90
42715;DHT22;28351;51.480;5.706;2023-07-08T01:42:57;18.90;96.60
42715;DHT22;28351;51.480;5.706;2023-07-08T01:45:25;18.90;96.50
42715;DHT22;28351;51.480;5.706;2023-07-08T01:48:01;18.80;96.60
42715;DHT22;28351;51.480;5.706;2023-07-08T01:50:29;18.80;97.10
42715;DHT22;28351;51.480;5.706;2023-07-08T01:52:59;18.80;97.10
42715;DHT22;28351;51.480;5.706;2023-07-08T01:55:26;18.70;97.00
42715;DHT22;28351;51.480;5.706;2023-07-08T01:57:54;18.70;97.10
42715;DHT22;28351;51.480;5.706;2023-07-08T02:00:21;18.70;97.20
42715;DHT22;28351;51.480;5.706;2023-07-08T02:02:47;18.70;97.30
42715;DHT22;28351;51.480;5.706;2023-07-08T02:05:13;18.60;97.30
42715;DHT22;28351;51.480;5.706;2023-07-08T02:07:39;18.60;97.40
42715;DHT22;28351;51.480;5.706;2023-07-08T02:10:05;18.60;97.40
42715;DHT22;28351;51.480;5.706;2023-07-08T02:12:31;18.50;97.50
42715;DHT22;28351;51.480;5.706;2023-07-08T02:15:01;18.50;97.70
42715;DHT22;28351;51.480;5.706;2023-07-08T02:17:27;18.50;98.10
42715;DHT22;28351;51.480;5.706;2023-07-08T02:19:55;18.50;97.60
42715;DHT22;28351;51.480;5.706;2023-07-08T02:22:21;18.40;97.90
42715;DHT22;28351;51.480;5.706;2023-07-08T02:24:46;18.40;98.00
42715;DHT22;28351;51.480;5.706;2023-07-08T02:27:13;18.40;98.00
42715;DHT22;28351;51.480;5.706;2023-07-08T02:29:39;18.30;98.40
42715;DHT22;28351;51.480;5.706;2023-07-08T02:32:05;18.20;98.40
42715;DHT22;28351;51.480;5.706;2023-07-08T02:34:35;18.20;98.40
42715;DHT22;28351;51.480;5.706;2023-07-08T02:37:01;18.10;98.60
42715;DHT22;28351;51.480;5.706;2023-07-08T02:39:27;18.10;98.70
42715;DHT22;28351;51.480;5.706;2023-07-08T02:41:52;18.00;98.70
42715;DHT22;28351;51.480;5.706;2023-07-08T02:44:18;18.00;98.90
42715;DHT22;28351;51.480;5.706;2023-07-08T02:46:44;17.90;99.00
42715;DHT22;28351;51.480;5.706;2023-07-08T02:49:09;17.90;99.10
42715;DHT22;28351;51.480;5.706;2023-07-08T02:51:35;17.90;99.50
42715;DHT22;28351;51.480;5.706;2023-07-08T02:54:02;17.80;99.40
42715;DHT22;28351;51.480;5.706;2023-07-08T02:56:30;17.70;99.60
42715;DHT22;28351;51.480;5.706;2023-07-08T02:58:55;17.70;99.60
42715;DHT22;28351;51.480;5.706;2023-07-08T03:01:21;17.70;99.70
42715;DHT22;28351;51.480;5.706;2023-07-08T03:03:47;17.70;99.90
42715;DHT22;28351;51.480;5.706;2023-07-08T03:06:14;17.70;99.80
42715;DHT22;28351;51.480;5.706;2023-07-08T03:08:39;17.70;99.70
42715;DHT22;28351;51.480;5.706;2023-07-08T03:11:14;17.70;99.70
42715;DHT22;28351;51.480;5.706;2023-07-08T03:13:40;17.60;99.70
42715;DHT22;28351;51.480;5.706;2023-07-08T03:16:08;17.60;99.90
42715;DHT22;28351;51.480;5.706;2023-07-08T03:18:38;17.60;99.90
42715;DHT22;28351;51.480;5.706;2023-07-08T03:21:12;17.60;99.90
42715;DHT22;28351;51.480;5.706;2023-07-08T03:23:38;17.50;99.90
42715;DHT22;28351;51.480;5.706;2023-07-08T03:26:04;17.50;99.90
42715;DHT22;28351;51.480;5.706;2023-07-08T03:28:29;17.50;99.90
42715;DHT22;28351;51.480;5.706;2023-07-08T03:30:55;17.40;99.90
42715;DHT22;28351;51.480;5.706;2023-07-08T03:33:21;17.40;99.90
42715;DHT22;28351;51.480;5.706;2023-07-08T03:35:46;17.40;99.90
42715;DHT22;28351;51.480;5.706;2023-07-08T03:38:16;17.30;99.90
42715;DHT22;28351;51.480;5.706;2023-07-08T03:40:41;17.30;99.90
42715;DHT22;28351;51.480;5.706;2023-07-08T03:43:07;17.30;99.90
42715;DHT22;28351;51.480;5.706;2023-07-08T03:45:33;17.30;99.90
42715;DHT22;28351;51.480;5.706;2023-07-08T03:47:58;17.30;99.90
42715;DHT22;28351;51.480;5.706;2023-07-08T03:50:26;17.20;99.90
42715;DHT22;28351;51.480;5.706;2023-07-08T03:52:56;17.20;99.90
42715;DHT22;28351;51.480;5.706;2023-07-08T03:55:22;17.10;99.90
42715;DHT22;28351;51.480;5.706;2023-07-08T03:57:47;17.10;99.90
42715;DHT22;28351;51.480;5.706;2023-07-08T04:00:14;17.10;99.90
42715;DHT22;28351;51.480;5.706;2023-07-08T04:02:41;17.10;99.90
42715;DHT22;28351;51.480;5.706;2023-07-08T04:05:12;17.10;99.90
42715;DHT22;28351;51.480;5.706;2023-07-08T04:07:38;17.20;99.90
42715;DHT22;28351;51.480;5.706;2023-07-08T04:10:04;17.20;99.90
42715;DHT22;28351;51.480;5.706;2023-07-08T04:12:30;17.20;99.90
42715;DHT22;28351;51.480;5.706;2023-07-08T04:14:55;17.30;99.90
42715;DHT22;28351;51.480;5.706;2023-07-08T04:17:24;17.20;99.90
42715;DHT22;28351;51.480;5.706;2023-07-08T04:19:50;17.20;99.90
42715;DHT22;28351;51.480;5.706;2023-07-08T04:22:16;17.20;99.90
42715;DHT22;28351;51.480;5.706;2023-07-08T04:24:42;17.20;99.90
42715;DHT22;28351;51.480;5.706;2023-07-08T04:27:16;17.20;99.90
42715;DHT22;28351;51.480;5.706;2023-07-08T04:29:42;17.40;99.90
42715;DHT22;28351;51.480;5.706;2023-07-08T04:32:08;17.40;99.90
42715;DHT22;28351;51.480;5.706;2023-07-08T04:34:34;17.60;99.90
42715;DHT22;28351;51.480;5.706;2023-07-08T04:37:00;17.70;99.90
42715;DHT22;28351;51.480;5.706;2023-07-08T04:39:26;17.70;99.90
42715;DHT22;28351;51.480;5.706;2023-07-08T04:41:52;17.70;99.90
42715;DHT22;28351;51.480;5.706;2023-07-08T04:44:18;17.70;99.90
42715;DHT22;28351;51.480;5.706;2023-07-08T04:46:49;17.70;99.90
42715;DHT22;28351;51.480;5.706;2023-07-08T04:49:16;17.60;99.90
42715;DHT22;28351;51.480;5.706;2023-07-08T04:51:42;17.60;99.90
42715;DHT22;28351;51.480;5.706;2023-07-08T04:54:09;17.60;99.90
42715;DHT22;28351;51.480;5.706;2023-07-08T04:56:41;17.60;99.90
42715;DHT22;28351;51.480;5.706;2023-07-08T04:59:15;17.70;99.90
42715;DHT22;28351;51.480;5.706;2023-07-08T05:01:41;17.70;99.90
42715;DHT22;28351;51.480;5.706;2023-07-08T05:04:10;17.70;99.90
42715;DHT22;28351;51.480;5.706;2023-07-08T05:06:36;17.70;99.90
42715;DHT22;28351;51.480;5.706;2023-07-08T05:09:03;17.70;99.90
42715;DHT22;28351;51.480;5.706;2023-07-08T05:11:29;17.70;99.90
42715;DHT22;28351;51.480;5.706;2023-07-08T05:13:55;17.70;99.90
42715;DHT22;28351;51.480;5.706;2023-07-08T05:16:21;17.90;99.90
42715;DHT22;28351;51.480;5.706;2023-07-08T05:18:47;18.10;99.90
42715;DHT22;28351;51.480;5.706;2023-07-08T05:21:13;18.30;99.90
42715;DHT22;28351;51.480;5.706;2023-07-08T05:23:39;18.60;99.90
42715;DHT22;28351;51.480;5.706;2023-07-08T05:26:06;18.70;99.90
42715;DHT22;28351;51.480;5.706;2023-07-08T05:28:35;18.80;99.90
42715;DHT22;28351;51.480;5.706;2023-07-08T05:31:01;18.90;99.90
42715;DHT22;28351;51.480;5.706;2023-07-08T05:33:28;18.90;99.90
42715;DHT22;28351;51.480;5.706;2023-07-08T05:35:54;18.90;99.90
42715;DHT22;28351;51.480;5.706;2023-07-08T05:38:20;18.90;99.90
42715;DHT22;28351;51.480;5.706;2023-07-08T05:40:50;18.80;99.90
42715;DHT22;28351;51.480;5.706;2023-07-08T05:43:17;18.70;99.90
42715;DHT22;28351;51.480;5.706;2023-07-08T05:45:43;18.70;99.90
42715;DHT22;28351;51.480;5.706;2023-07-08T05:48:12;18.60;99.90
42715;DHT22;28351;51.480;5.706;2023-07-08T05:50:38;18.70;99.90
42715;DHT22;28351;51.480;5.706;2023-07-08T05:53:04;18.80;99.90
42715;DHT22;28351;51.480;5.706;2023-07-08T05:55:34;18.90;99.90
42715;DHT22;28351;51.480;5.706;2023-07-08T05:57:59;19.00;99.90
42715;DHT22;28351;51.480;5.706;2023-07-08T06:00:25;19.00;99.90
42715;DHT22;28351;51.480;5.706;2023-07-08T06:02:50;19.00;99.90
42715;DHT22;28351;51.480;5.706;2023-07-08T06:05:16;19.00;99.90
42715;DHT22;28351;51.480;5.706;2023-07-08T06:07:42;18.90;99.90
42715;DHT22;28351;51.480;5.706;2023-07-08T06:10:07;19.10;99.90
42715;DHT22;28351;51.480;5.706;2023-07-08T06:12:36;19.30;99.90
42715;DHT22;28351;51.480;5.706;2023-07-08T06:15:02;19.40;99.90
42715;DHT22;28351;51.480;5.706;2023-07-08T06:17:27;19.60;99.90
42715;DHT22;28351;51.480;5.706;2023-07-08T06:19:53;19.90;99.90
42715;DHT22;28351;51.480;5.706;2023-07-08T06:22:19;20.10;99.90
42715;DHT22;28351;51.480;5.706;2023-07-08T06:24:44;20.30;99.90
42715;DHT22;28351;51.480;5.706;2023-07-08T06:27:10;20.50;99.90
42715;DHT22;28351;51.480;5.706;2023-07-08T06:29:36;20.70;99.80
42715;DHT22;28351;51.480;5.706;2023-07-08T06:32:05;20.90;99.80
42715;DHT22;28351;51.480;5.706;2023-07-08T06:34:31;20.90;99.00
42715;DHT22;28351;51.480;5.706;2023-07-08T06:36:57;20.90;99.20
42715;DHT22;28351;51.480;5.706;2023-07-08T06:39:23;20.90;99.20
42715;DHT22;28351;51.480;5.706;2023-07-08T06:41:48;21.00;99.00
42715;DHT22;28351;51.480;5.706;2023-07-08T06:44:14;21.10;98.90
42715;DHT22;28351;51.480;5.706;2023-07-08T06:46:43;21.20;98.60
42715;DHT22;28351;51.480;5.706;2023-07-08T06:49:08;21.20;98.40
42715;DHT22;28351;51.480;5.706;2023-07-08T06:51:35;21.20;98.30
42715;DHT22;28351;51.480;5.706;2023-07-08T06:54:01;21.30;97.70
42715;DHT22;28351;51.480;5.706;2023-07-08T06:56:33;21.50;97.50
42715;DHT22;28351;51.480;5.706;2023-07-08T06:58:58;21.70;97.00
42715;DHT22;28351;51.480;5.706;2023-07-08T07:01:24;21.90;96.30
42715;DHT22;28351;51.480;5.706;2023-07-08T07:03:50;22.00;96.20
42715;DHT22;28351;51.480;5.706;2023-07-08T07:06:15;22.10;95.70
42715;DHT22;28351;51.480;5.706;2023-07-08T07:08:42;22.30;96.20
42715;DHT22;28351;51.480;5.706;2023-07-08T07:11:08;22.40;95.60
42715;DHT22;28351;51.480;5.706;2023-07-08T07:13:33;22.50;95.30
42715;DHT22;28351;51.480;5.706;2023-07-08T07:15:59;22.70;94.80
42715;DHT22;28351;51.480;5.706;2023-07-08T07:18:24;22.80;94.90
42715;DHT22;28351;51.480;5.706;2023-07-08T07:20:54;23.00;94.70
42715;DHT22;28351;51.480;5.706;2023-07-08T07:23:20;23.10;94.20
42715;DHT22;28351;51.480;5.706;2023-07-08T07:25:46;23.20;94.40
42715;DHT22;28351;51.480;5.706;2023-07-08T07:28:15;23.30;93.80
42715;DHT22;28351;51.480;5.706;2023-07-08T07:30:43;23.50;93.70
42715;DHT22;28351;51.480;5.706;2023-07-08T07:33:09;23.70;93.60
42715;DHT22;28351;51.480;5.706;2023-07-08T07:35:35;23.80;93.90
42715;DHT22;28351;51.480;5.706;2023-07-08T07:38:00;23.90;93.40
42715;DHT22;28351;51.480;5.706;2023-07-08T07:40:26;24.00;93.00
42715;DHT22;28351;51.480;5.706;2023-07-08T07:42:52;24.20;93.40
42715;DHT22;28351;51.480;5.706;2023-07-08T07:45:17;24.30;92.70
42715;DHT22;28351;51.480;5.706;2023-07-08T07:47:45;24.50;92.40
42715;DHT22;28351;51.480;5.706;2023-07-08T07:50:10;24.50;92.50
42715;DHT22;28351;51.480;5.706;2023-07-08T07:52:36;24.80;91.70
42715;DHT22;28351;51.480;5.706;2023-07-08T07:55:03;24.90;92.00
42715;DHT22;28351;51.480;5.706;2023-07-08T07:57:29;25.00;92.20
42715;DHT22;28351;51.480;5.706;2023-07-08T07:59:55;25.10;91.60
42715;DHT22;28351;51.480;5.706;2023-07-08T08:02:20;25.20;91.90
42715;DHT22;28351;51.480;5.706;2023-07-08T08:04:46;25.30;91.60
42715;DHT22;28351;51.480;5.706;2023-07-08T08:07:21;25.40;91.40
42715;DHT22;28351;51.480;5.706;2023-07-08T08:09:46;25.60;91.30
42715;DHT22;28351;51.480;5.706;2023-07-08T08:12:12;25.60;90.80
42715;DHT22;28351;51.480;5.706;2023-07-08T08:14:38;25.70;90.90
42715;DHT22;28351;51.480;5.706;2023-07-08T08:17:05;25.90;90.80
42715;DHT22;28351;51.480;5.706;2023-07-08T08:19:31;26.00;90.00
42715;DHT22;28351;51.480;5.706;2023-07-08T08:21:57;26.10;89.20
42715;DHT22;28351;51.480;5.706;2023-07-08T08:24:23;26.10;90.00
42715;DHT22;28351;51.480;5.706;2023-07-08T08:26:48;26.20;88.80
42715;DHT22;28351;51.480;5.706;2023-07-08T08:29:14;26.30;88.30
42715;DHT22;28351;51.480;5.706;2023-07-08T08:31:40;26.40;88.50
42715;DHT22;28351;51.480;5.706;2023-07-08T08:34:05;26.50;88.10
42715;DHT22;28351;51.480;5.706;2023-07-08T08:36:31;26.70;88.70
42715;DHT22;28351;51.480;5.706;2023-07-08T08:38:57;26.80;88.90
42715;DHT22;28351;51.480;5.706;2023-07-08T08:41:31;27.00;88.20
42715;DHT22;28351;51.480;5.706;2023-07-08T08:43:58;27.10;87.60
42715;DHT22;28351;51.480;5.706;2023-07-08T08:46:45;27.20;86.70
42715;DHT22;28351;51.480;5.706;2023-07-08T08:51:42;27.40;87.00
42715;DHT22;28351;51.480;5.706;2023-07-08T08:54:08;27.50;86.30
42715;DHT22;28351;51.480;5.706;2023-07-08T08:56:55;27.60;86.20
42715;DHT22;28351;51.480;5.706;2023-07-08T08:59:44;27.80;86.20
42715;DHT22;28351;51.480;5.706;2023-07-08T09:02:37;27.90;85.70
42715;DHT22;28351;51.480;5.706;2023-07-08T09:05:10;28.00;84.80
42715;DHT22;28351;51.480;5.706;2023-07-08T09:07:58;28.20;84.80
42715;DHT22;28351;51.480;5.706;2023-07-08T09:13:16;28.50;84.00
42715;DHT22;28351;51.480;5.706;2023-07-08T09:15:43;28.50;83.40
42715;DHT22;28351;51.480;5.706;2023-07-08T09:18:29;28.60;83.60
42715;DHT22;28351;51.480;5.706;2023-07-08T09:20:58;28.80;82.00
42715;DHT22;28351;51.480;5.706;2023-07-08T09:23:30;28.90;81.70
42715;DHT22;28351;51.480;5.706;2023-07-08T09:25:59;29.00;81.70
42715;DHT22;28351;51.480;5.706;2023-07-08T09:28:44;29.10;80.80
42715;DHT22;28351;51.480;5.706;2023-07-08T09:31:27;29.30;81.30
42715;DHT22;28351;51.480;5.706;2023-07-08T09:34:08;29.50;81.60
42715;DHT22;28351;51.480;5.706;2023-07-08T09:36:42;29.80;81.50
42715;DHT22;28351;51.480;5.706;2023-07-08T09:39:16;29.90;82.70
42715;DHT22;28351;51.480;5.706;2023-07-08T09:41:44;30.10;82.50
42715;DHT22;28351;51.480;5.706;2023-07-08T09:44:26;30.30;83.00
42715;DHT22;28351;51.480;5.706;2023-07-08T09:46:53;30.30;82.50
42715;DHT22;28351;51.480;5.706;2023-07-08T09:49:32;30.40;82.00
42715;DHT22;28351;51.480;5.706;2023-07-08T09:51:59;30.40;82.60
42715;DHT22;28351;51.480;5.706;2023-07-08T09:54:25;30.60;83.00
42715;DHT22;28351;51.480;5.706;2023-07-08T09:59:29;30.70;81.80
42715;DHT22;28351;51.480;5.706;2023-07-08T10:01:59;30.80;81.80
42715;DHT22;28351;51.480;5.706;2023-07-08T10:04:28;31.10;82.40
42715;DHT22;28351;51.480;5.706;2023-07-08T10:06:54;31.00;80.60
42715;DHT22;28351;51.480;5.706;2023-07-08T10:09:24;31.00;79.90
42715;DHT22;28351;51.480;5.706;2023-07-08T10:12:02;31.20;81.20
42715;DHT22;28351;51.480;5.706;2023-07-08T10:14:37;31.50;80.20
42715;DHT22;28351;51.480;5.706;2023-07-08T10:17:13;31.50;80.60
42715;DHT22;28351;51.480;5.706;2023-07-08T10:19:40;31.60;79.30
42715;DHT22;28351;51.480;5.706;2023-07-08T10:25:04;32.00;77.60
42715;DHT22;28351;51.480;5.706;2023-07-08T10:30:31;32.20;75.60
42715;DHT22;28351;51.480;5.706;2023-07-08T10:39:33;32.90;77.30
42715;DHT22;28351;51.480;5.706;2023-07-08T10:53:23;33.90;71.30
42715;DHT22;28351;51.480;5.706;2023-07-08T10:58:31;34.50;67.50
42715;DHT22;28351;51.480;5.706;2023-07-08T11:04:05;35.10;67.40
42715;DHT22;28351;51.480;5.706;2023-07-08T11:09:03;36.20;67.40
42715;DHT22;28351;51.480;5.706;2023-07-08T11:11:40;36.80;66.90
42715;DHT22;28351;51.480;5.706;2023-07-08T11:14:22;37.20;67.00
42715;DHT22;28351;51.480;5.706;2023-07-08T11:19:34;37.80;67.40
42715;DHT22;28351;51.480;5.706;2023-07-08T11:22:04;38.40;67.10
42715;DHT22;28351;51.480;5.706;2023-07-08T11:24:50;38.70;67.70
42715;DHT22;28351;51.480;5.706;2023-07-08T11:27:29;39.10;67.10
42715;DHT22;28351;51.480;5.706;2023-07-08T11:30:02;39.50;68.00
42715;DHT22;28351;51.480;5.706;2023-07-08T11:32:31;39.50;66.30
42715;DHT22;28351;51.480;5.706;2023-07-08T11:35:00;39.90;65.90
42715;DHT22;28351;51.480;5.706;2023-07-08T11:37:31;40.30;65.40
42715;DHT22;28351;51.480;5.706;2023-07-08T11:40:16;40.40;64.10
42715;DHT22;28351;51.480;5.706;2023-07-08T11:42:44;40.30;63.90
42715;DHT22;28351;51.480;5.706;2023-07-08T11:45:26;40.80;64.20
42715;DHT22;28351;51.480;5.706;2023-07-08T11:47:53;41.20;64.30
42715;DHT22;28351;51.480;5.706;2023-07-08T11:50:37;41.60;62.80
42715;DHT22;28351;51.480;5.706;2023-07-08T11:53:10;41.70;61.90
42715;DHT22;28351;51.480;5.706;2023-07-08T11:55:47;41.90;62.80
42715;DHT22;28351;51.480;5.706;2023-07-08T12:01:32;42.20;62.10
42715;DHT22;28351;51.480;5.706;2023-07-08T12:04:17;42.80;60.80
42715;DHT22;28351;51.480;5.706;2023-07-08T12:07:09;42.50;60.60
42715;DHT22;28351;51.480;5.706;2023-07-08T12:09:39;42.90;60.60
42715;DHT22;28351;51.480;5.706;2023-07-08T12:12:30;43.00;60.50
42715;DHT22;28351;51.480;5.706;2023-07-08T12:15:31;42.60;59.40
42715;DHT22;28351;51.480;5.706;2023-07-08T12:18:01;42.40;58.30
42715;DHT22;28351;51.480;5.706;2023-07-08T12:20:32;42.10;59.40
42715;DHT22;28351;51.480;5.706;2023-07-08T12:22:58;42.90;59.40
42715;DHT22;28351;51.480;5.706;2023-07-08T12:25:31;43.10;58.50
42715;DHT22;28351;51.480;5.706;2023-07-08T12:27:58;42.60;59.10
42715;DHT22;28351;51.480;5.706;2023-07-08T12:30:24;42.80;58.50
42715;DHT22;28351;51.480;5.706;2023-07-08T12:32:51;43.60;58.80
42715;DHT22;28351;51.480;5.706;2023-07-08T12:38:05;44.00;58.30
42715;DHT22;28351;51.480;5.706;2023-07-08T12:40:32;43.90;58.80
42715;DHT22;28351;51.480;5.706;2023-07-08T12:42:58;43.60;58.00
42715;DHT22;28351;51.480;5.706;2023-07-08T12:45:30;43.70;56.70
42715;DHT22;28351;51.480;5.706;2023-07-08T12:47:56;43.30;56.80
42715;DHT22;28351;51.480;5.706;2023-07-08T12:50:21;43.40;56.10
42715;DHT22;28351;51.480;5.706;2023-07-08T12:52:47;43.90;56.40
42715;DHT22;28351;51.480;5.706;2023-07-08T12:55:16;44.60;57.60
42715;DHT22;28351;51.480;5.706;2023-07-08T12:57:46;45.70;57.20
42715;DHT22;28351;51.480;5.706;2023-07-08T13:00:21;46.40;56.90
42715;DHT22;28351;51.480;5.706;2023-07-08T13:03:07;46.20;55.00
42715;DHT22;28351;51.480;5.706;2023-07-08T13:05:34;45.50;55.70
42715;DHT22;28351;51.480;5.706;2023-07-08T13:08:00;45.40;55.70
42715;DHT22;28351;51.480;5.706;2023-07-08T13:10:29;45.10;55.90
42715;DHT22;28351;51.480;5.706;2023-07-08T13:12:58;45.30;55.60
42715;DHT22;28351;51.480;5.706;2023-07-08T13:15:38;44.80;56.70
42715;DHT22;28351;51.480;5.706;2023-07-08T13:18:28;44.70;55.80
42715;DHT22;28351;51.480;5.706;2023-07-08T13:20:54;44.10;55.20
42715;DHT22;28351;51.480;5.706;2023-07-08T13:23:22;44.60;55.90
42715;DHT22;28351;51.480;5.706;2023-07-08T13:25:49;44.30;55.10
42715;DHT22;28351;51.480;5.706;2023-07-08T13:28:19;44.60;55.30
42715;DHT22;28351;51.480;5.706;2023-07-08T13:30:58;45.20;55.00
42715;DHT22;28351;51.480;5.706;2023-07-08T13:33:32;45.40;55.10
42715;DHT22;28351;51.480;5.706;2023-07-08T13:36:02;45.50;54.40
42715;DHT22;28351;51.480;5.706;2023-07-08T13:38:33;45.60;56.30
42715;DHT22;28351;51.480;5.706;2023-07-08T13:41:02;45.40;55.00
42715;DHT22;28351;51.480;5.706;2023-07-08T13:43:31;45.80;55.40
42715;DHT22;28351;51.480;5.706;2023-07-08T13:45:58;46.20;55.00
42715;DHT22;28351;51.480;5.706;2023-07-08T13:48:58;44.30;53.90
42715;DHT22;28351;51.480;5.706;2023-07-08T13:51:19;44.20;55.80
42715;DHT22;28351;51.480;5.706;2023-07-08T13:56:29;45.30;55.30
42715;DHT22;28351;51.480;5.706;2023-07-08T13:59:25;45.90;54.30
42715;DHT22;28351;51.480;5.706;2023-07-08T14:01:55;45.10;53.40
42715;DHT22;28351;51.480;5.706;2023-07-08T14:04:30;45.50;54.20
42715;DHT22;28351;51.480;5.706;2023-07-08T14:06:57;45.50;54.20
42715;DHT22;28351;51.480;5.706;2023-07-08T14:09:23;45.50;53.80
42715;DHT22;28351;51.480;5.706;2023-07-08T14:11:50;45.50;53.70
42715;DHT22;28351;51.480;5.706;2023-07-08T14:14:19;46.30;53.30
42715;DHT22;28351;51.480;5.706;2023-07-08T14:17:07;46.60;53.10
42715;DHT22;28351;51.480;5.706;2023-07-08T14:19:34;45.90;53.30
42715;DHT22;28351;51.480;5.706;2023-07-08T14:24:41;44.10;54.10
42715;DHT22;28351;51.480;5.706;2023-07-08T14:27:09;44.10;55.20
42715;DHT22;28351;51.480;5.706;2023-07-08T14:29:40;44.50;54.90
42715;DHT22;28351;51.480;5.706;2023-07-08T14:32:29;44.90;53.70
42715;DHT22;28351;51.480;5.706;2023-07-08T14:37:41;44.40;53.10
42715;DHT22;28351;51.480;5.706;2023-07-08T14:40:23;44.00;54.70
42715;DHT22;28351;51.480;5.706;2023-07-08T14:42:58;42.80;53.70
42715;DHT22;28351;51.480;5.706;2023-07-08T14:45:29;42.30;54.50
42715;DHT22;28351;51.480;5.706;2023-07-08T14:47:55;41.10;54.80
42715;DHT22;28351;51.480;5.706;2023-07-08T14:50:21;40.30;55.10
42715;DHT22;28351;51.480;5.706;2023-07-08T14:52:47;39.70;56.70
42715;DHT22;28351;51.480;5.706;2023-07-08T14:55:13;39.10;56.80
42715;DHT22;28351;51.480;5.706;2023-07-08T14:57:45;38.90;57.00
42715;DHT22;28351;51.480;5.706;2023-07-08T15:00:14;38.50;57.50
42715;DHT22;28351;51.480;5.706;2023-07-08T15:02:41;38.20;57.90
42715;DHT22;28351;51.480;5.706;2023-07-08T15:05:16;37.90;58.30
42715;DHT22;28351;51.480;5.706;2023-07-08T15:07:42;37.60;58.90
42715;DHT22;28351;51.480;5.706;2023-07-08T15:10:08;37.60;59.10
42715;DHT22;28351;51.480;5.706;2023-07-08T15:12:35;37.70;59.70
42715;DHT22;28351;51.480;5.706;2023-07-08T15:15:00;37.70;59.50
42715;DHT22;28351;51.480;5.706;2023-07-08T15:17:26;37.60;59.20
42715;DHT22;28351;51.480;5.706;2023-07-08T15:19:52;37.30;59.90
42715;DHT22;28351;51.480;5.706;2023-07-08T15:22:18;36.70;59.40
42715;DHT22;28351;51.480;5.706;2023-07-08T15:24:43;36.30;60.20
42715;DHT22;28351;51.480;5.706;2023-07-08T15:27:12;36.20;60.40
42715;DHT22;28351;51.480;5.706;2023-07-08T15:29:39;36.10;61.20
42715;DHT22;28351;51.480;5.706;2023-07-08T15:32:12;35.80;61.00
42715;DHT22;28351;51.480;5.706;2023-07-08T15:34:39;35.70;62.30
42715;DHT22;28351;51.480;5.706;2023-07-08T15:37:04;35.50;61.70
42715;DHT22;28351;51.480;5.706;2023-07-08T15:39:30;35.50;62.20
42715;DHT22;28351;51.480;5.706;2023-07-08T15:41:56;35.50;63.20
42715;DHT22;28351;51.480;5.706;2023-07-08T15:44:22;35.40;62.60
42715;DHT22;28351;51.480;5.706;2023-07-08T15:46:49;35.20;61.90
42715;DHT22;28351;51.480;5.706;2023-07-08T15:49:23;35.20;63.20
42715;DHT22;28351;51.480;5.706;2023-07-08T15:51:49;35.30;62.90
42715;DHT22;28351;51.480;5.706;2023-07-08T15:54:16;35.20;63.10
42715;DHT22;28351;51.480;5.706;2023-07-08T15:56:42;35.20;62.90
42715;DHT22;28351;51.480;5.706;2023-07-08T15:59:12;35.00;62.30
42715;DHT22;28351;51.480;5.706;2023-07-08T16:01:39;35.10;63.60
42715;DHT22;28351;51.480;5.706;2023-07-08T16:06:44;35.10;64.60
42715;DHT22;28351;51.480;5.706;2023-07-08T16:09:10;35.20;63.20
42715;DHT22;28351;51.480;5.706;2023-07-08T16:11:36;35.30;63.60
42715;DHT22;28351;51.480;5.706;2023-07-08T16:14:02;35.60;63.30
42715;DHT22;28351;51.480;5.706;2023-07-08T16:16:28;36.10;61.90
42715;DHT22;28351;51.480;5.706;2023-07-08T16:18:53;36.80;62.80
42715;DHT22;28351;51.480;5.706;2023-07-08T16:21:19;37.10;62.10
42715;DHT22;28351;51.480;5.706;2023-07-08T16:23:45;36.70;61.10
42715;DHT22;28351;51.480;5.706;2023-07-08T16:26:14;36.50;63.10
42715;DHT22;28351;51.480;5.706;2023-07-08T16:28:45;35.80;62.20
42715;DHT22;28351;51.480;5.706;2023-07-08T16:31:18;35.70;62.50
42715;DHT22;28351;51.480;5.706;2023-07-08T16:33:44;35.70;63.10
42715;DHT22;28351;51.480;5.706;2023-07-08T16:36:15;35.90;64.50
42715;DHT22;28351;51.480;5.706;2023-07-08T16:38:41;35.70;63.10
42715;DHT22;28351;51.480;5.706;2023-07-08T16:41:15;35.80;64.30
42715;DHT22;28351;51.480;5.706;2023-07-08T16:43:41;35.80;63.50